sensor_id;sensor_type;location;lat;lon;timestamp;pressure;altitude;pressure_sealevel;temperature;humidity
84755;BME280;74980;50.776;-3.082;2023-12-22T00:00:52;100978.48;;;24.90;30.62
84755;BME280;74980;50.776;-3.082;2023-12-22T00:03:18;100987.40;;;24.71;30.59
84755;BME280;74980;50.776;-3.082;2023-12-22T00:05:44;100975.22;;;24.74;30.53
84755;BME280;74980;50.776;-3.082;2023-12-22T00:08:09;100989.02;;;24.75;30.51
84755;BME280;74980;50.776;-3.082;2023-12-22T00:10:33;100991.45;;;24.74;30.43
84755;BME280;74980;50.776;-3.082;2023-12-22T00:13:00;100983.23;;;24.80;30.37
84755;BME280;74980;50.776;-3.082;2023-12-22T00:15:24;100998.01;;;24.68;30.45
84755;BME280;74980;50.776;-3.082;2023-12-22T00:17:50;100986.20;;;24.79;30.43
84755;BME280;74980;50.776;-3.082;2023-12-22T00:20:15;100987.11;;;24.75;30.37
84755;BME280;74980;50.776;-3.082;2023-12-22T00:22:42;100985.62;;;24.87;30.26
84755;BME280;74980;50.776;-3.082;2023-12-22T00:25:08;100977.38;;;24.71;30.42
84755;BME280;74980;50.776;-3.082;2023-12-22T00:27:32;100974.95;;;24.74;30.50
84755;BME280;74980;50.776;-3.082;2023-12-22T00:29:58;100972.65;;;24.68;30.60
84755;BME280;74980;50.776;-3.082;2023-12-22T00:32:23;100965.49;;;24.68;30.54
84755;BME280;74980;50.776;-3.082;2023-12-22T00:34:48;100970.07;;;24.69;30.56
84755;BME280;74980;50.776;-3.082;2023-12-22T00:37:14;100973.28;;;24.69;30.60
84755;BME280;74980;50.776;-3.082;2023-12-22T00:39:39;100968.66;;;24.62;30.66
84755;BME280;74980;50.776;-3.082;2023-12-22T00:42:05;100979.47;;;24.72;30.51
84755;BME280;74980;50.776;-3.082;2023-12-22T00:44:31;100980.30;;;24.73;30.59
84755;BME280;74980;50.776;-3.082;2023-12-22T00:46:57;100977.78;;;24.69;30.58
84755;BME280;74980;50.776;-3.082;2023-12-22T00:49:21;100978.88;;;24.70;30.63
84755;BME280;74980;50.776;-3.082;2023-12-22T00:51:48;100964.92;;;24.92;30.62
84755;BME280;74980;50.776;-3.082;2023-12-22T00:54:12;100975.43;;;24.75;30.55
84755;BME280;74980;50.776;-3.082;2023-12-22T00:56:38;100981.91;;;24.66;30.67
84755;BME280;74980;50.776;-3.082;2023-12-22T00:59:03;100971.73;;;24.72;30.58
84755;BME280;74980;50.776;-3.082;2023-12-22T01:01:29;100978.61;;;24.96;30.49
84755;BME280;74980;50.776;-3.082;2023-12-22T01:03:54;100972.66;;;24.75;30.41
84755;BME280;74980;50.776;-3.082;2023-12-22T01:06:21;100971.94;;;24.78;30.45
84755;BME280;74980;50.776;-3.082;2023-12-22T01:08:47;100965.28;;;25.27;30.44
84755;BME280;74980;50.776;-3.082;2023-12-22T01:11:10;100956.49;;;24.79;30.41
84755;BME280;74980;50.776;-3.082;2023-12-22T01:13:36;100958.02;;;24.80;30.53
84755;BME280;74980;50.776;-3.082;2023-12-22T01:16:01;100951.83;;;24.71;30.63
84755;BME280;74980;50.776;-3.082;2023-12-22T01:18:28;100951.19;;;24.77;30.68
84755;BME280;74980;50.776;-3.082;2023-12-22T01:20:54;100943.71;;;24.76;30.69
84755;BME280;74980;50.776;-3.082;2023-12-22T01:23:19;100949.69;;;24.78;30.65
84755;BME280;74980;50.776;-3.082;2023-12-22T01:25:43;100949.37;;;25.02;30.68
84755;BME280;74980;50.776;-3.082;2023-12-22T01:28:09;100957.66;;;24.74;30.66
84755;BME280;74980;50.776;-3.082;2023-12-22T01:30:34;100955.16;;;24.75;30.64
84755;BME280;74980;50.776;-3.082;2023-12-22T01:33:00;100954.57;;;24.75;30.69
84755;BME280;74980;50.776;-3.082;2023-12-22T01:35:25;100968.12;;;24.86;30.61
84755;BME280;74980;50.776;-3.082;2023-12-22T01:37:51;100954.87;;;24.75;30.67
84755;BME280;74980;50.776;-3.082;2023-12-22T01:40:16;100945.54;;;24.68;30.89
84755;BME280;74980;50.776;-3.082;2023-12-22T01:42:43;100953.40;;;24.68;30.78
84755;BME280;74980;50.776;-3.082;2023-12-22T01:45:10;100944.13;;;24.74;30.72
84755;BME280;74980;50.776;-3.082;2023-12-22T01:47:33;100944.82;;;24.54;30.68
84755;BME280;74980;50.776;-3.082;2023-12-22T01:49:58;100933.66;;;24.71;30.73
84755;BME280;74980;50.776;-3.082;2023-12-22T01:52:24;100940.34;;;24.73;30.73
84755;BME280;74980;50.776;-3.082;2023-12-22T01:54:51;100943.29;;;24.74;30.74
84755;BME280;74980;50.776;-3.082;2023-12-22T01:57:18;100935.44;;;24.83;30.69
84755;BME280;74980;50.776;-3.082;2023-12-22T01:59:40;100950.64;;;24.81;30.70
84755;BME280;74980;50.776;-3.082;2023-12-22T02:02:06;100935.60;;;24.82;30.77
84755;BME280;74980;50.776;-3.082;2023-12-22T02:04:32;100948.65;;;24.85;30.70
84755;BME280;74980;50.776;-3.082;2023-12-22T02:07:01;100953.41;;;24.77;30.76
84755;BME280;74980;50.776;-3.082;2023-12-22T02:09:22;100946.01;;;24.84;30.66
84755;BME280;74980;50.776;-3.082;2023-12-22T02:11:49;100953.15;;;24.85;30.64
84755;BME280;74980;50.776;-3.082;2023-12-22T02:14:13;100955.76;;;24.84;30.62
84755;BME280;74980;50.776;-3.082;2023-12-22T02:16:44;100956.99;;;24.78;30.69
84755;BME280;74980;50.776;-3.082;2023-12-22T02:19:12;100967.22;;;24.75;30.75
84755;BME280;74980;50.776;-3.082;2023-12-22T02:21:30;100967.86;;;25.00;30.78
84755;BME280;74980;50.776;-3.082;2023-12-22T02:23:55;100963.47;;;24.77;30.73
84755;BME280;74980;50.776;-3.082;2023-12-22T02:26:32;100960.96;;;24.78;30.73
84755;BME280;74980;50.776;-3.082;2023-12-22T02:28:50;100966.31;;;24.78;30.73
84755;BME280;74980;50.776;-3.082;2023-12-22T02:31:18;100967.10;;;24.78;30.74
84755;BME280;74980;50.776;-3.082;2023-12-22T02:33:39;100973.49;;;24.84;30.75
84755;BME280;74980;50.776;-3.082;2023-12-22T02:36:08;100972.74;;;24.79;30.64
84755;BME280;74980;50.776;-3.082;2023-12-22T02:38:29;100965.74;;;24.85;30.62
84755;BME280;74980;50.776;-3.082;2023-12-22T02:40:56;100980.63;;;24.91;30.53
84755;BME280;74980;50.776;-3.082;2023-12-22T02:43:19;100965.04;;;24.78;30.67
84755;BME280;74980;50.776;-3.082;2023-12-22T02:45:45;100968.64;;;24.84;30.66
84755;BME280;74980;50.776;-3.082;2023-12-22T02:48:11;100966.01;;;24.75;30.79
84755;BME280;74980;50.776;-3.082;2023-12-22T02:50:38;100967.91;;;24.73;30.79
84755;BME280;74980;50.776;-3.082;2023-12-22T02:53:01;100953.25;;;24.76;30.65
84755;BME280;74980;50.776;-3.082;2023-12-22T02:55:27;100965.49;;;24.79;30.69
84755;BME280;74980;50.776;-3.082;2023-12-22T02:57:52;100968.80;;;24.55;30.64
84755;BME280;74980;50.776;-3.082;2023-12-22T03:00:18;100975.79;;;25.04;30.69
84755;BME280;74980;50.776;-3.082;2023-12-22T03:02:43;100970.99;;;24.93;30.88
84755;BME280;74980;50.776;-3.082;2023-12-22T03:05:10;100964.67;;;24.93;30.79
84755;BME280;74980;50.776;-3.082;2023-12-22T03:07:35;100958.64;;;24.86;30.88
84755;BME280;74980;50.776;-3.082;2023-12-22T03:10:00;100961.62;;;24.67;30.80
84755;BME280;74980;50.776;-3.082;2023-12-22T03:12:25;100948.60;;;24.92;30.79
84755;BME280;74980;50.776;-3.082;2023-12-22T03:14:51;100941.37;;;24.81;30.65
84755;BME280;74980;50.776;-3.082;2023-12-22T03:17:16;100958.87;;;24.99;30.64
84755;BME280;74980;50.776;-3.082;2023-12-22T03:19:43;100938.30;;;24.68;30.69
84755;BME280;74980;50.776;-3.082;2023-12-22T03:22:07;100944.05;;;24.75;30.68
84755;BME280;74980;50.776;-3.082;2023-12-22T03:24:33;100946.58;;;24.69;30.74
84755;BME280;74980;50.776;-3.082;2023-12-22T03:26:58;100943.66;;;24.72;30.71
84755;BME280;74980;50.776;-3.082;2023-12-22T03:29:24;100938.06;;;24.59;30.83
84755;BME280;74980;50.776;-3.082;2023-12-22T03:31:50;100941.17;;;24.54;30.86
84755;BME280;74980;50.776;-3.082;2023-12-22T03:34:17;100944.67;;;24.87;30.82
84755;BME280;74980;50.776;-3.082;2023-12-22T03:36:40;100954.12;;;24.57;30.86
84755;BME280;74980;50.776;-3.082;2023-12-22T03:39:06;100953.21;;;24.80;30.82
84755;BME280;74980;50.776;-3.082;2023-12-22T03:41:32;100956.27;;;24.77;30.86
84755;BME280;74980;50.776;-3.082;2023-12-22T03:43:59;100971.97;;;24.60;30.81
84755;BME280;74980;50.776;-3.082;2023-12-22T03:46:23;100959.74;;;24.65;30.77
84755;BME280;74980;50.776;-3.082;2023-12-22T03:48:48;100957.75;;;24.60;30.78
84755;BME280;74980;50.776;-3.082;2023-12-22T03:51:13;100957.47;;;25.03;30.82
84755;BME280;74980;50.776;-3.082;2023-12-22T03:53:39;100950.08;;;24.57;30.74
84755;BME280;74980;50.776;-3.082;2023-12-22T03:56:07;100958.83;;;24.45;30.82
84755;BME280;74980;50.776;-3.082;2023-12-22T03:58:30;100958.03;;;24.62;30.67
84755;BME280;74980;50.776;-3.082;2023-12-22T04:00:55;100957.40;;;24.64;30.65
84755;BME280;74980;50.776;-3.082;2023-12-22T04:03:21;100971.23;;;24.60;30.71
84755;BME280;74980;50.776;-3.082;2023-12-22T04:05:47;100974.42;;;24.63;30.71
84755;BME280;74980;50.776;-3.082;2023-12-22T04:08:12;100972.47;;;24.62;30.73
84755;BME280;74980;50.776;-3.082;2023-12-22T04:10:37;100964.09;;;24.57;30.77
84755;BME280;74980;50.776;-3.082;2023-12-22T04:13:03;100966.88;;;24.71;30.92
84755;BME280;74980;50.776;-3.082;2023-12-22T04:15:31;100959.42;;;24.72;30.93
84755;BME280;74980;50.776;-3.082;2023-12-22T04:17:54;100959.83;;;24.56;30.84
84755;BME280;74980;50.776;-3.082;2023-12-22T04:20:19;100954.25;;;24.56;30.83
84755;BME280;74980;50.776;-3.082;2023-12-22T04:22:46;100948.72;;;25.00;30.63
84755;BME280;74980;50.776;-3.082;2023-12-22T04:25:10;100965.19;;;24.49;30.60
84755;BME280;74980;50.776;-3.082;2023-12-22T04:27:36;100953.96;;;24.61;30.72
84755;BME280;74980;50.776;-3.082;2023-12-22T04:30:01;100960.03;;;24.55;30.80
84755;BME280;74980;50.776;-3.082;2023-12-22T04:32:27;100954.90;;;24.57;30.80
84755;BME280;74980;50.776;-3.082;2023-12-22T04:34:52;100956.68;;;24.54;30.81
84755;BME280;74980;50.776;-3.082;2023-12-22T04:37:18;100956.83;;;24.79;30.78
84755;BME280;74980;50.776;-3.082;2023-12-22T04:39:43;100959.51;;;25.11;30.66
84755;BME280;74980;50.776;-3.082;2023-12-22T04:42:09;100945.56;;;24.53;30.70
84755;BME280;74980;50.776;-3.082;2023-12-22T04:44:34;100950.97;;;24.52;30.77
84755;BME280;74980;50.776;-3.082;2023-12-22T04:47:00;100953.98;;;24.67;30.68
84755;BME280;74980;50.776;-3.082;2023-12-22T04:49:25;100940.45;;;24.58;30.77
84755;BME280;74980;50.776;-3.082;2023-12-22T04:51:51;100944.85;;;24.55;30.84
84755;BME280;74980;50.776;-3.082;2023-12-22T04:54:18;100948.78;;;24.55;30.77
84755;BME280;74980;50.776;-3.082;2023-12-22T04:56:42;100947.61;;;24.56;30.78
84755;BME280;74980;50.776;-3.082;2023-12-22T04:59:09;100956.35;;;24.56;30.87
84755;BME280;74980;50.776;-3.082;2023-12-22T05:01:33;100967.58;;;24.59;30.83
84755;BME280;74980;50.776;-3.082;2023-12-22T05:03:58;100963.16;;;24.57;30.77
84755;BME280;74980;50.776;-3.082;2023-12-22T05:06:23;100967.71;;;24.77;30.70
84755;BME280;74980;50.776;-3.082;2023-12-22T05:08:50;100976.80;;;24.56;30.79
84755;BME280;74980;50.776;-3.082;2023-12-22T05:11:14;100974.73;;;24.92;30.73
84755;BME280;74980;50.776;-3.082;2023-12-22T05:13:41;100970.89;;;24.60;30.69
84755;BME280;74980;50.776;-3.082;2023-12-22T05:16:06;100955.66;;;24.52;30.83
84755;BME280;74980;50.776;-3.082;2023-12-22T05:18:32;100978.61;;;24.57;30.74
84755;BME280;74980;50.776;-3.082;2023-12-22T05:20:58;100975.67;;;24.79;30.69
84755;BME280;74980;50.776;-3.082;2023-12-22T05:23:23;100978.76;;;24.50;30.80
84755;BME280;74980;50.776;-3.082;2023-12-22T05:25:49;100977.75;;;24.44;30.91
84755;BME280;74980;50.776;-3.082;2023-12-22T05:28:14;100976.17;;;24.42;30.87
84755;BME280;74980;50.776;-3.082;2023-12-22T05:30:38;100979.48;;;24.67;30.85
84755;BME280;74980;50.776;-3.082;2023-12-22T05:33:05;100979.40;;;24.50;30.77
84755;BME280;74980;50.776;-3.082;2023-12-22T05:35:31;100987.01;;;24.53;30.73
84755;BME280;74980;50.776;-3.082;2023-12-22T05:37:55;100991.97;;;24.49;30.75
84755;BME280;74980;50.776;-3.082;2023-12-22T05:40:22;100994.61;;;24.70;30.69
84755;BME280;74980;50.776;-3.082;2023-12-22T05:42:46;100988.38;;;24.42;30.80
84755;BME280;74980;50.776;-3.082;2023-12-22T05:45:12;100996.43;;;24.42;30.82
84755;BME280;74980;50.776;-3.082;2023-12-22T05:47:37;100999.65;;;24.72;30.74
84755;BME280;74980;50.776;-3.082;2023-12-22T05:50:03;100997.72;;;24.46;30.76
84755;BME280;74980;50.776;-3.082;2023-12-22T05:52:28;101006.61;;;24.43;30.80
84755;BME280;74980;50.776;-3.082;2023-12-22T05:54:55;101006.16;;;24.39;30.72
84755;BME280;74980;50.776;-3.082;2023-12-22T05:57:20;100992.95;;;24.62;30.70
84755;BME280;74980;50.776;-3.082;2023-12-22T05:59:44;101006.87;;;24.66;30.79
84755;BME280;74980;50.776;-3.082;2023-12-22T06:02:11;101001.38;;;24.93;30.72
84755;BME280;74980;50.776;-3.082;2023-12-22T06:04:35;100996.73;;;24.73;30.56
84755;BME280;74980;50.776;-3.082;2023-12-22T06:07:00;101003.59;;;24.51;30.52
84755;BME280;74980;50.776;-3.082;2023-12-22T06:09:26;100988.52;;;24.42;30.50
84755;BME280;74980;50.776;-3.082;2023-12-22T06:11:52;100985.66;;;24.35;30.48
84755;BME280;74980;50.776;-3.082;2023-12-22T06:14:17;100981.00;;;24.54;30.47
84755;BME280;74980;50.776;-3.082;2023-12-22T06:16:42;100974.80;;;24.26;30.53
84755;BME280;74980;50.776;-3.082;2023-12-22T06:19:08;100990.62;;;24.45;30.36
84755;BME280;74980;50.776;-3.082;2023-12-22T06:21:36;100991.92;;;24.36;30.60
84755;BME280;74980;50.776;-3.082;2023-12-22T06:23:59;100992.59;;;24.56;30.64
84755;BME280;74980;50.776;-3.082;2023-12-22T06:26:24;100981.98;;;24.32;30.65
84755;BME280;74980;50.776;-3.082;2023-12-22T06:28:50;100982.60;;;24.76;30.78
84755;BME280;74980;50.776;-3.082;2023-12-22T06:31:21;101005.60;;;24.28;30.83
84755;BME280;74980;50.776;-3.082;2023-12-22T06:33:41;101011.09;;;23.92;31.25
84755;BME280;74980;50.776;-3.082;2023-12-22T06:36:07;101001.90;;;24.04;30.92
84755;BME280;74980;50.776;-3.082;2023-12-22T06:38:33;101002.60;;;24.81;30.75
84755;BME280;74980;50.776;-3.082;2023-12-22T06:40:58;101009.20;;;24.38;30.49
84755;BME280;74980;50.776;-3.082;2023-12-22T06:43:23;101010.61;;;24.36;30.43
84755;BME280;74980;50.776;-3.082;2023-12-22T06:45:48;101005.89;;;24.42;30.34
84755;BME280;74980;50.776;-3.082;2023-12-22T06:48:14;101007.94;;;24.56;30.34
84755;BME280;74980;50.776;-3.082;2023-12-22T06:50:41;100994.33;;;24.63;30.01
84755;BME280;74980;50.776;-3.082;2023-12-22T06:53:05;100996.94;;;24.65;29.95
84755;BME280;74980;50.776;-3.082;2023-12-22T06:55:30;100994.51;;;24.68;29.88
84755;BME280;74980;50.776;-3.082;2023-12-22T06:57:56;101010.42;;;24.52;30.03
84755;BME280;74980;50.776;-3.082;2023-12-22T07:00:21;101020.43;;;24.81;29.78
84755;BME280;74980;50.776;-3.082;2023-12-22T07:02:47;101011.12;;;24.85;29.67
84755;BME280;74980;50.776;-3.082;2023-12-22T07:07:39;101012.41;;;24.90;29.39
84755;BME280;74980;50.776;-3.082;2023-12-22T07:10:03;101007.28;;;24.96;29.55
84755;BME280;74980;50.776;-3.082;2023-12-22T07:12:30;101011.25;;;25.24;29.48
84755;BME280;74980;50.776;-3.082;2023-12-22T07:14:54;101013.77;;;25.08;29.32
84755;BME280;74980;50.776;-3.082;2023-12-22T07:17:21;101022.71;;;25.20;29.32
84755;BME280;74980;50.776;-3.082;2023-12-22T07:19:47;101015.48;;;25.25;29.15
84755;BME280;74980;50.776;-3.082;2023-12-22T07:22:11;101029.59;;;25.04;29.05
84755;BME280;74980;50.776;-3.082;2023-12-22T07:24:36;101024.52;;;25.25;28.98
84755;BME280;74980;50.776;-3.082;2023-12-22T07:27:01;101034.07;;;25.29;28.90
84755;BME280;74980;50.776;-3.082;2023-12-22T07:29:27;101028.84;;;25.01;29.08
84755;BME280;74980;50.776;-3.082;2023-12-22T07:31:54;101026.67;;;24.97;29.03
84755;BME280;74980;50.776;-3.082;2023-12-22T07:34:20;101018.22;;;25.06;29.22
84755;BME280;74980;50.776;-3.082;2023-12-22T07:36:44;101018.46;;;25.08;29.38
84755;BME280;74980;50.776;-3.082;2023-12-22T07:39:11;101018.17;;;24.87;29.56
84755;BME280;74980;50.776;-3.082;2023-12-22T07:41:34;101024.96;;;25.07;29.45
84755;BME280;74980;50.776;-3.082;2023-12-22T07:44:00;101025.17;;;25.15;29.37
84755;BME280;74980;50.776;-3.082;2023-12-22T07:46:25;101026.95;;;24.81;29.33
84755;BME280;74980;50.776;-3.082;2023-12-22T07:48:52;101040.55;;;25.09;29.33
84755;BME280;74980;50.776;-3.082;2023-12-22T07:51:18;101038.20;;;25.27;29.18
84755;BME280;74980;50.776;-3.082;2023-12-22T07:53:44;101041.43;;;25.35;29.04
84755;BME280;74980;50.776;-3.082;2023-12-22T07:56:08;101043.20;;;25.27;28.82
84755;BME280;74980;50.776;-3.082;2023-12-22T07:58:32;101051.64;;;25.44;28.78
84755;BME280;74980;50.776;-3.082;2023-12-22T08:00:59;101053.17;;;25.19;29.05
84755;BME280;74980;50.776;-3.082;2023-12-22T08:03:24;101054.00;;;24.87;29.26
84755;BME280;74980;50.776;-3.082;2023-12-22T08:05:49;101046.61;;;24.70;29.53
84755;BME280;74980;50.776;-3.082;2023-12-22T08:08:14;101054.54;;;25.23;29.25
84755;BME280;74980;50.776;-3.082;2023-12-22T08:10:40;101057.30;;;25.28;28.99
84755;BME280;74980;50.776;-3.082;2023-12-22T08:13:05;101068.26;;;25.10;28.83
84755;BME280;74980;50.776;-3.082;2023-12-22T08:15:31;101071.68;;;25.09;29.20
84755;BME280;74980;50.776;-3.082;2023-12-22T08:17:56;101067.69;;;25.02;29.34
84755;BME280;74980;50.776;-3.082;2023-12-22T08:20:22;101071.24;;;25.09;29.32
84755;BME280;74980;50.776;-3.082;2023-12-22T08:22:47;101071.88;;;24.83;29.29
84755;BME280;74980;50.776;-3.082;2023-12-22T08:25:13;101074.41;;;25.15;29.27
84755;BME280;74980;50.776;-3.082;2023-12-22T08:27:38;101078.83;;;24.77;29.97
84755;BME280;74980;50.776;-3.082;2023-12-22T08:30:04;101086.66;;;25.10;29.51
84755;BME280;74980;50.776;-3.082;2023-12-22T08:32:29;101081.53;;;25.11;29.30
84755;BME280;74980;50.776;-3.082;2023-12-22T08:34:54;101098.95;;;25.01;29.27
84755;BME280;74980;50.776;-3.082;2023-12-22T08:37:20;101093.50;;;25.25;28.89
84755;BME280;74980;50.776;-3.082;2023-12-22T08:39:46;101096.24;;;25.23;28.83
84755;BME280;74980;50.776;-3.082;2023-12-22T08:42:12;101086.25;;;25.13;29.06
84755;BME280;74980;50.776;-3.082;2023-12-22T08:44:37;101076.93;;;25.45;29.01
84755;BME280;74980;50.776;-3.082;2023-12-22T08:47:02;101089.57;;;25.17;28.96
84755;BME280;74980;50.776;-3.082;2023-12-22T09:04:01;101092.18;;;25.19;29.11
84755;BME280;74980;50.776;-3.082;2023-12-22T09:06:26;101095.55;;;24.97;29.34
84755;BME280;74980;50.776;-3.082;2023-12-22T09:08:52;101096.98;;;25.32;29.27
84755;BME280;74980;50.776;-3.082;2023-12-22T09:11:18;101089.15;;;25.40;29.19
84755;BME280;74980;50.776;-3.082;2023-12-22T09:13:44;101088.46;;;25.23;29.16
84755;BME280;74980;50.776;-3.082;2023-12-22T09:16:08;101072.19;;;24.94;28.99
84755;BME280;74980;50.776;-3.082;2023-12-22T09:18:33;101083.77;;;25.29;28.71
84755;BME280;74980;50.776;-3.082;2023-12-22T09:20:59;101090.58;;;25.59;28.55
84755;BME280;74980;50.776;-3.082;2023-12-22T09:23:24;101097.48;;;25.44;28.42
84755;BME280;74980;50.776;-3.082;2023-12-22T09:25:50;101078.20;;;25.43;28.25
84755;BME280;74980;50.776;-3.082;2023-12-22T09:28:15;101086.93;;;25.46;28.16
84755;BME280;74980;50.776;-3.082;2023-12-22T09:30:41;101092.73;;;25.47;28.11
84755;BME280;74980;50.776;-3.082;2023-12-22T09:33:07;101086.53;;;25.45;28.08
84755;BME280;74980;50.776;-3.082;2023-12-22T09:35:34;101081.23;;;25.41;28.01
84755;BME280;74980;50.776;-3.082;2023-12-22T09:38:01;101086.49;;;25.34;28.06
84755;BME280;74980;50.776;-3.082;2023-12-22T09:40:24;101077.71;;;25.34;28.05
84755;BME280;74980;50.776;-3.082;2023-12-22T09:42:49;101081.72;;;25.29;28.17
84755;BME280;74980;50.776;-3.082;2023-12-22T09:45:16;101089.75;;;25.25;28.15
84755;BME280;74980;50.776;-3.082;2023-12-22T09:47:41;101082.39;;;25.22;28.16
84755;BME280;74980;50.776;-3.082;2023-12-22T09:50:05;101087.22;;;25.19;28.20
84755;BME280;74980;50.776;-3.082;2023-12-22T09:52:32;101096.40;;;25.49;28.04
84755;BME280;74980;50.776;-3.082;2023-12-22T09:54:57;101103.56;;;25.48;28.08
84755;BME280;74980;50.776;-3.082;2023-12-22T09:57:22;101111.40;;;25.32;27.93
84755;BME280;74980;50.776;-3.082;2023-12-22T09:59:49;101107.22;;;25.57;27.88
84755;BME280;74980;50.776;-3.082;2023-12-22T10:02:11;101111.01;;;25.59;27.89
84755;BME280;74980;50.776;-3.082;2023-12-22T10:04:38;101106.89;;;25.31;27.90
84755;BME280;74980;50.776;-3.082;2023-12-22T10:07:04;101117.27;;;25.26;27.93
84755;BME280;74980;50.776;-3.082;2023-12-22T10:09:27;101111.66;;;25.54;27.94
84755;BME280;74980;50.776;-3.082;2023-12-22T10:11:53;101122.26;;;25.27;27.95
84755;BME280;74980;50.776;-3.082;2023-12-22T10:14:20;101131.70;;;25.47;28.00
84755;BME280;74980;50.776;-3.082;2023-12-22T10:16:43;101124.21;;;25.50;28.06
84755;BME280;74980;50.776;-3.082;2023-12-22T10:19:11;101128.41;;;25.55;27.95
84755;BME280;74980;50.776;-3.082;2023-12-22T10:21:34;101120.71;;;25.52;28.01
84755;BME280;74980;50.776;-3.082;2023-12-22T10:23:59;101122.63;;;25.51;27.95
84755;BME280;74980;50.776;-3.082;2023-12-22T10:26:25;101133.96;;;25.27;28.05
84755;BME280;74980;50.776;-3.082;2023-12-22T10:28:52;101136.29;;;25.41;28.16
84755;BME280;74980;50.776;-3.082;2023-12-22T10:31:17;101132.24;;;25.12;28.12
84755;BME280;74980;50.776;-3.082;2023-12-22T10:33:44;101129.73;;;25.12;28.09
84755;BME280;74980;50.776;-3.082;2023-12-22T10:36:11;101155.22;;;25.10;28.13
84755;BME280;74980;50.776;-3.082;2023-12-22T10:38:37;101132.80;;;25.22;27.98
84755;BME280;74980;50.776;-3.082;2023-12-22T10:41:00;101142.10;;;25.20;27.99
84755;BME280;74980;50.776;-3.082;2023-12-22T10:43:23;101156.30;;;25.41;27.97
84755;BME280;74980;50.776;-3.082;2023-12-22T10:45:51;101151.02;;;25.14;27.92
84755;BME280;74980;50.776;-3.082;2023-12-22T10:48:14;101147.00;;;25.39;27.84
84755;BME280;74980;50.776;-3.082;2023-12-22T10:50:40;101148.99;;;25.40;27.85
84755;BME280;74980;50.776;-3.082;2023-12-22T10:53:10;101147.36;;;25.14;27.84
84755;BME280;74980;50.776;-3.082;2023-12-22T10:55:31;101144.66;;;25.40;27.85
84755;BME280;74980;50.776;-3.082;2023-12-22T10:57:57;101147.07;;;25.20;27.86
84755;BME280;74980;50.776;-3.082;2023-12-22T11:00:23;101165.87;;;25.43;27.87
84755;BME280;74980;50.776;-3.082;2023-12-22T11:02:51;101159.15;;;25.43;27.72
84755;BME280;74980;50.776;-3.082;2023-12-22T11:05:14;101160.42;;;25.40;27.74
84755;BME280;74980;50.776;-3.082;2023-12-22T11:07:38;101153.30;;;25.35;27.79
84755;BME280;74980;50.776;-3.082;2023-12-22T11:10:06;101164.02;;;25.19;27.77
84755;BME280;74980;50.776;-3.082;2023-12-22T11:12:30;101162.81;;;25.47;27.61
84755;BME280;74980;50.776;-3.082;2023-12-22T11:14:54;101161.67;;;25.47;27.58
84755;BME280;74980;50.776;-3.082;2023-12-22T11:17:23;101169.55;;;25.48;27.63
84755;BME280;74980;50.776;-3.082;2023-12-22T11:19:45;101171.46;;;25.47;27.68
84755;BME280;74980;50.776;-3.082;2023-12-22T11:22:11;101188.55;;;25.44;27.70
84755;BME280;74980;50.776;-3.082;2023-12-22T11:24:37;101179.82;;;25.42;27.68
84755;BME280;74980;50.776;-3.082;2023-12-22T11:27:01;101173.65;;;25.42;27.71
84755;BME280;74980;50.776;-3.082;2023-12-22T11:29:29;101172.42;;;25.36;27.77
84755;BME280;74980;50.776;-3.082;2023-12-22T11:31:57;101176.41;;;25.27;27.90
84755;BME280;74980;50.776;-3.082;2023-12-22T11:34:18;101175.75;;;25.29;27.92
84755;BME280;74980;50.776;-3.082;2023-12-22T11:36:43;101182.83;;;25.02;28.26
84755;BME280;74980;50.776;-3.082;2023-12-22T11:39:08;101187.07;;;24.91;28.21
84755;BME280;74980;50.776;-3.082;2023-12-22T11:41:37;101192.00;;;25.28;28.13
84755;BME280;74980;50.776;-3.082;2023-12-22T11:44:00;101183.35;;;25.32;28.11
84755;BME280;74980;50.776;-3.082;2023-12-22T11:46:24;101179.54;;;25.30;28.10
84755;BME280;74980;50.776;-3.082;2023-12-22T11:48:51;101181.58;;;25.05;28.01
84755;BME280;74980;50.776;-3.082;2023-12-22T11:51:17;101186.35;;;25.44;28.21
84755;BME280;74980;50.776;-3.082;2023-12-22T11:53:41;101182.49;;;25.30;28.30
84755;BME280;74980;50.776;-3.082;2023-12-22T11:56:07;101180.11;;;25.04;28.34
84755;BME280;74980;50.776;-3.082;2023-12-22T11:58:38;101178.87;;;25.29;28.19
84755;BME280;74980;50.776;-3.082;2023-12-22T12:00:59;101191.03;;;25.04;28.23
84755;BME280;74980;50.776;-3.082;2023-12-22T12:03:26;101191.78;;;25.24;28.13
84755;BME280;74980;50.776;-3.082;2023-12-22T12:05:48;101164.35;;;25.19;28.27
84755;BME280;74980;50.776;-3.082;2023-12-22T12:08:16;101164.67;;;25.19;28.29
84755;BME280;74980;50.776;-3.082;2023-12-22T12:10:51;101161.65;;;25.21;28.25
84755;BME280;74980;50.776;-3.082;2023-12-22T12:13:09;101152.68;;;25.15;28.33
84755;BME280;74980;50.776;-3.082;2023-12-22T12:15:33;101158.65;;;25.07;28.41
84755;BME280;74980;50.776;-3.082;2023-12-22T12:17:56;101157.88;;;25.09;28.41
84755;BME280;74980;50.776;-3.082;2023-12-22T12:20:21;101151.23;;;25.15;28.28
84755;BME280;74980;50.776;-3.082;2023-12-22T12:22:47;101151.42;;;25.16;28.21
84755;BME280;74980;50.776;-3.082;2023-12-22T12:25:13;101146.92;;;25.19;28.12
84755;BME280;74980;50.776;-3.082;2023-12-22T12:27:38;101149.59;;;25.15;28.11
84755;BME280;74980;50.776;-3.082;2023-12-22T12:30:11;101135.94;;;24.93;28.05
84755;BME280;74980;50.776;-3.082;2023-12-22T12:32:29;101157.13;;;25.16;28.11
84755;BME280;74980;50.776;-3.082;2023-12-22T12:34:54;101141.27;;;25.29;28.03
84755;BME280;74980;50.776;-3.082;2023-12-22T12:37:20;101146.92;;;25.24;28.14
84755;BME280;74980;50.776;-3.082;2023-12-22T12:39:46;101144.83;;;25.20;28.20
84755;BME280;74980;50.776;-3.082;2023-12-22T12:42:13;101131.57;;;24.94;28.18
84755;BME280;74980;50.776;-3.082;2023-12-22T12:44:36;101135.49;;;25.17;28.26
84755;BME280;74980;50.776;-3.082;2023-12-22T12:49:27;101157.08;;;25.19;28.24